sensor_id;sensor_type;location;lat;lon;timestamp;P1;durP1;ratioP1;P2;durP2;ratioP2
21615;SDS011;10970;48.714;9.584;2023-04-03T00:01:28;6.60;;;3.60;;
21615;SDS011;10970;48.714;9.584;2023-04-03T00:03:54;3.60;;;3.13;;
21615;SDS011;10970;48.714;9.584;2023-04-03T00:06:20;5.95;;;2.83;;
21615;SDS011;10970;48.714;9.584;2023-04-03T00:08:47;2.92;;;2.72;;
21615;SDS011;10970;48.714;9.584;2023-04-03T00:11:12;3.93;;;3.57;;
21615;SDS011;10970;48.714;9.584;2023-04-03T00:13:39;4.07;;;3.67;;
21615;SDS011;10970;48.714;9.584;2023-04-03T00:16:05;3.60;;;3.30;;
21615;SDS011;10970;48.714;9.584;2023-04-03T00:18:31;3.15;;;2.85;;
21615;SDS011;10970;48.714;9.584;2023-04-03T00:20:57;3.63;;;3.30;;
21615;SDS011;10970;48.714;9.584;2023-04-03T00:23:23;3.37;;;3.10;;
21615;SDS011;10970;48.714;9.584;2023-04-03T00:25:49;3.00;;;2.80;;
21615;SDS011;10970;48.714;9.584;2023-04-03T00:28:15;5.05;;;3.13;;
21615;SDS011;10970;48.714;9.584;2023-04-03T00:30:41;3.57;;;2.90;;
21615;SDS011;10970;48.714;9.584;2023-04-03T00:33:07;2.83;;;2.57;;
21615;SDS011;10970;48.714;9.584;2023-04-03T00:35:33;3.20;;;3.00;;
21615;SDS011;10970;48.714;9.584;2023-04-03T00:38:00;3.03;;;2.47;;
21615;SDS011;10970;48.714;9.584;2023-04-03T00:40:26;3.13;;;2.93;;
21615;SDS011;10970;48.714;9.584;2023-04-03T00:42:56;4.18;;;2.95;;
21615;SDS011;10970;48.714;9.584;2023-04-03T00:47:56;3.78;;;3.38;;
21615;SDS011;10970;48.714;9.584;2023-04-03T00:50:25;4.18;;;3.78;;
21615;SDS011;10970;48.714;9.584;2023-04-03T00:52:51;3.45;;;2.80;;
21615;SDS011;10970;48.714;9.584;2023-04-03T00:55:17;2.47;;;2.30;;
21615;SDS011;10970;48.714;9.584;2023-04-03T00:57:44;3.83;;;3.40;;
21615;SDS011;10970;48.714;9.584;2023-04-03T01:00:12;4.03;;;3.70;;
21615;SDS011;10970;48.714;9.584;2023-04-03T01:02:41;6.72;;;3.88;;
21615;SDS011;10970;48.714;9.584;2023-04-03T01:05:07;9.10;;;7.00;;
21615;SDS011;10970;48.714;9.584;2023-04-03T01:07:33;9.20;;;5.50;;
21615;SDS011;10970;48.714;9.584;2023-04-03T01:10:03;10.60;;;6.05;;
21615;SDS011;10970;48.714;9.584;2023-04-03T01:12:35;10.73;;;6.20;;
21615;SDS011;10970;48.714;9.584;2023-04-03T01:15:13;16.33;;;7.55;;
21615;SDS011;10970;48.714;9.584;2023-04-03T01:17:54;8.68;;;6.47;;
21615;SDS011;10970;48.714;9.584;2023-04-03T01:25:52;5.15;;;3.53;;
21615;SDS011;10970;48.714;9.584;2023-04-03T01:28:22;5.30;;;3.38;;
21615;SDS011;10970;48.714;9.584;2023-04-03T01:30:56;3.53;;;3.22;;
21615;SDS011;10970;48.714;9.584;2023-04-03T01:33:42;4.22;;;3.45;;
21615;SDS011;10970;48.714;9.584;2023-04-03T01:36:09;3.80;;;3.30;;
21615;SDS011;10970;48.714;9.584;2023-04-03T01:38:38;2.75;;;2.55;;
21615;SDS011;10970;48.714;9.584;2023-04-03T01:41:03;3.60;;;2.97;;
21615;SDS011;10970;48.714;9.584;2023-04-03T01:43:29;2.70;;;2.50;;
21615;SDS011;10970;48.714;9.584;2023-04-03T01:45:55;4.23;;;3.20;;
21615;SDS011;10970;48.714;9.584;2023-04-03T01:48:20;3.10;;;2.90;;
21615;SDS011;10970;48.714;9.584;2023-04-03T01:50:46;3.53;;;3.23;;
21615;SDS011;10970;48.714;9.584;2023-04-03T01:53:12;4.23;;;3.93;;
21615;SDS011;10970;48.714;9.584;2023-04-03T01:55:38;3.13;;;2.92;;
21615;SDS011;10970;48.714;9.584;2023-04-03T01:58:03;3.50;;;3.20;;
21615;SDS011;10970;48.714;9.584;2023-04-03T02:00:29;4.43;;;3.60;;
21615;SDS011;10970;48.714;9.584;2023-04-03T02:02:55;3.00;;;2.75;;
21615;SDS011;10970;48.714;9.584;2023-04-03T02:05:21;3.55;;;3.25;;
21615;SDS011;10970;48.714;9.584;2023-04-03T02:07:47;5.00;;;3.77;;
21615;SDS011;10970;48.714;9.584;2023-04-03T02:10:13;4.40;;;4.10;;
21615;SDS011;10970;48.714;9.584;2023-04-03T02:12:38;3.50;;;3.20;;
21615;SDS011;10970;48.714;9.584;2023-04-03T02:15:04;4.47;;;3.17;;
21615;SDS011;10970;48.714;9.584;2023-04-03T02:17:31;3.38;;;3.08;;
21615;SDS011;10970;48.714;9.584;2023-04-03T02:19:56;3.77;;;3.47;;
21615;SDS011;10970;48.714;9.584;2023-04-03T02:22:22;3.60;;;3.30;;
21615;SDS011;10970;48.714;9.584;2023-04-03T02:24:47;3.80;;;3.43;;
21615;SDS011;10970;48.714;9.584;2023-04-03T02:27:13;2.73;;;2.57;;
21615;SDS011;10970;48.714;9.584;2023-04-03T02:29:39;3.67;;;3.05;;
21615;SDS011;10970;48.714;9.584;2023-04-03T02:32:05;3.20;;;2.90;;
21615;SDS011;10970;48.714;9.584;2023-04-03T02:34:30;3.40;;;3.10;;
21615;SDS011;10970;48.714;9.584;2023-04-03T02:36:56;2.70;;;2.57;;
21615;SDS011;10970;48.714;9.584;2023-04-03T02:39:22;4.30;;;3.93;;
21615;SDS011;10970;48.714;9.584;2023-04-03T02:41:47;3.17;;;2.87;;
21615;SDS011;10970;48.714;9.584;2023-04-03T02:44:13;3.70;;;3.37;;
21615;SDS011;10970;48.714;9.584;2023-04-03T02:46:38;3.50;;;3.20;;
21615;SDS011;10970;48.714;9.584;2023-04-03T02:49:04;3.20;;;3.00;;
21615;SDS011;10970;48.714;9.584;2023-04-03T02:51:30;2.85;;;2.65;;
21615;SDS011;10970;48.714;9.584;2023-04-03T02:53:56;2.47;;;2.37;;
21615;SDS011;10970;48.714;9.584;2023-04-03T02:56:22;3.43;;;3.13;;
21615;SDS011;10970;48.714;9.584;2023-04-03T02:58:48;5.67;;;3.27;;
21615;SDS011;10970;48.714;9.584;2023-04-03T03:01:13;4.50;;;2.70;;
21615;SDS011;10970;48.714;9.584;2023-04-03T03:03:39;2.50;;;2.30;;
21615;SDS011;10970;48.714;9.584;2023-04-03T03:06:06;6.00;;;2.80;;
21615;SDS011;10970;48.714;9.584;2023-04-03T03:08:34;2.30;;;2.10;;
21615;SDS011;10970;48.714;9.584;2023-04-03T03:11:00;4.05;;;3.25;;
21615;SDS011;10970;48.714;9.584;2023-04-03T03:13:26;2.03;;;1.90;;
21615;SDS011;10970;48.714;9.584;2023-04-03T03:15:52;3.33;;;2.30;;
21615;SDS011;10970;48.714;9.584;2023-04-03T03:18:18;3.60;;;3.30;;
21615;SDS011;10970;48.714;9.584;2023-04-03T03:20:43;3.93;;;2.50;;
21615;SDS011;10970;48.714;9.584;2023-04-03T03:23:09;2.90;;;2.50;;
21615;SDS011;10970;48.714;9.584;2023-04-03T03:25:38;2.47;;;2.20;;
21615;SDS011;10970;48.714;9.584;2023-04-03T03:28:05;3.10;;;2.80;;
21615;SDS011;10970;48.714;9.584;2023-04-03T03:30:31;4.97;;;2.40;;
21615;SDS011;10970;48.714;9.584;2023-04-03T03:32:57;2.53;;;2.33;;
21615;SDS011;10970;48.714;9.584;2023-04-03T03:35:22;2.27;;;2.17;;
21615;SDS011;10970;48.714;9.584;2023-04-03T03:37:48;2.83;;;2.63;;
21615;SDS011;10970;48.714;9.584;2023-04-03T03:40:14;2.50;;;2.30;;
21615;SDS011;10970;48.714;9.584;2023-04-03T03:42:40;2.60;;;2.40;;
21615;SDS011;10970;48.714;9.584;2023-04-03T03:45:06;2.57;;;2.37;;
21615;SDS011;10970;48.714;9.584;2023-04-03T03:47:32;2.05;;;1.95;;
21615;SDS011;10970;48.714;9.584;2023-04-03T03:49:58;3.00;;;2.70;;
21615;SDS011;10970;48.714;9.584;2023-04-03T03:52:24;2.60;;;2.40;;
21615;SDS011;10970;48.714;9.584;2023-04-03T03:54:49;7.30;;;3.00;;
21615;SDS011;10970;48.714;9.584;2023-04-03T03:57:15;3.53;;;2.93;;
21615;SDS011;10970;48.714;9.584;2023-04-03T03:59:41;3.57;;;2.80;;
21615;SDS011;10970;48.714;9.584;2023-04-03T04:02:07;2.53;;;2.33;;
21615;SDS011;10970;48.714;9.584;2023-04-03T04:04:33;2.88;;;2.67;;
21615;SDS011;10970;48.714;9.584;2023-04-03T04:06:59;3.20;;;2.80;;
21615;SDS011;10970;48.714;9.584;2023-04-03T04:09:25;2.95;;;2.75;;
21615;SDS011;10970;48.714;9.584;2023-04-03T04:11:51;3.30;;;3.10;;
21615;SDS011;10970;48.714;9.584;2023-04-03T04:14:17;3.87;;;3.47;;
21615;SDS011;10970;48.714;9.584;2023-04-03T04:16:45;2.83;;;2.55;;
21615;SDS011;10970;48.714;9.584;2023-04-03T04:19:11;3.10;;;2.53;;
21615;SDS011;10970;48.714;9.584;2023-04-03T04:21:37;2.80;;;2.60;;
21615;SDS011;10970;48.714;9.584;2023-04-03T04:24:04;3.25;;;2.95;;
21615;SDS011;10970;48.714;9.584;2023-04-03T04:26:30;2.97;;;2.78;;
21615;SDS011;10970;48.714;9.584;2023-04-03T04:28:55;4.20;;;2.87;;
21615;SDS011;10970;48.714;9.584;2023-04-03T04:31:21;3.40;;;3.20;;
21615;SDS011;10970;48.714;9.584;2023-04-03T04:33:47;3.33;;;2.67;;
21615;SDS011;10970;48.714;9.584;2023-04-03T04:36:12;3.03;;;2.83;;
21615;SDS011;10970;48.714;9.584;2023-04-03T04:38:39;3.90;;;3.25;;
21615;SDS011;10970;48.714;9.584;2023-04-03T04:41:05;2.15;;;2.05;;
21615;SDS011;10970;48.714;9.584;2023-04-03T04:43:31;3.43;;;3.13;;
21615;SDS011;10970;48.714;9.584;2023-04-03T04:46:04;4.07;;;2.80;;
21615;SDS011;10970;48.714;9.584;2023-04-03T04:48:32;3.70;;;3.03;;
21615;SDS011;10970;48.714;9.584;2023-04-03T04:51:00;3.30;;;3.00;;
21615;SDS011;10970;48.714;9.584;2023-04-03T04:53:26;4.37;;;3.13;;
21615;SDS011;10970;48.714;9.584;2023-04-03T04:55:51;3.03;;;2.17;;
21615;SDS011;10970;48.714;9.584;2023-04-03T04:58:18;4.32;;;2.63;;
21615;SDS011;10970;48.714;9.584;2023-04-03T05:00:43;3.70;;;2.60;;
21615;SDS011;10970;48.714;9.584;2023-04-03T05:03:09;1.87;;;1.67;;
21615;SDS011;10970;48.714;9.584;2023-04-03T05:05:35;3.23;;;2.83;;
21615;SDS011;10970;48.714;9.584;2023-04-03T05:08:01;2.90;;;2.70;;
21615;SDS011;10970;48.714;9.584;2023-04-03T05:10:28;3.25;;;2.05;;
21615;SDS011;10970;48.714;9.584;2023-04-03T05:12:53;3.80;;;2.85;;
21615;SDS011;10970;48.714;9.584;2023-04-03T05:15:19;5.70;;;2.90;;
21615;SDS011;10970;48.714;9.584;2023-04-03T05:17:45;3.00;;;2.77;;
21615;SDS011;10970;48.714;9.584;2023-04-03T05:20:11;4.93;;;3.07;;
21615;SDS011;10970;48.714;9.584;2023-04-03T05:22:37;2.38;;;2.20;;
21615;SDS011;10970;48.714;9.584;2023-04-03T05:25:03;3.13;;;2.87;;
21615;SDS011;10970;48.714;9.584;2023-04-03T05:27:29;2.90;;;2.70;;
21615;SDS011;10970;48.714;9.584;2023-04-03T05:29:55;2.07;;;1.90;;
21615;SDS011;10970;48.714;9.584;2023-04-03T05:32:21;2.57;;;2.40;;
21615;SDS011;10970;48.714;9.584;2023-04-03T05:34:47;4.95;;;3.00;;
21615;SDS011;10970;48.714;9.584;2023-04-03T05:37:13;2.43;;;2.30;;
21615;SDS011;10970;48.714;9.584;2023-04-03T05:39:38;2.70;;;2.50;;
21615;SDS011;10970;48.714;9.584;2023-04-03T05:42:06;3.25;;;2.75;;
21615;SDS011;10970;48.714;9.584;2023-04-03T05:44:31;2.70;;;2.50;;
21615;SDS011;10970;48.714;9.584;2023-04-03T05:46:57;2.20;;;2.10;;
21615;SDS011;10970;48.714;9.584;2023-04-03T05:49:23;3.13;;;2.67;;
21615;SDS011;10970;48.714;9.584;2023-04-03T05:51:49;2.70;;;2.50;;
21615;SDS011;10970;48.714;9.584;2023-04-03T05:54:20;2.42;;;2.22;;
21615;SDS011;10970;48.714;9.584;2023-04-03T05:56:49;2.42;;;2.30;;
21615;SDS011;10970;48.714;9.584;2023-04-03T05:59:16;2.17;;;2.08;;
21615;SDS011;10970;48.714;9.584;2023-04-03T06:01:42;12.35;;;2.85;;
21615;SDS011;10970;48.714;9.584;2023-04-03T06:04:08;4.80;;;3.10;;
21615;SDS011;10970;48.714;9.584;2023-04-03T06:06:48;4.13;;;2.75;;
21615;SDS011;10970;48.714;9.584;2023-04-03T06:09:16;3.40;;;3.05;;
21615;SDS011;10970;48.714;9.584;2023-04-03T06:11:42;2.08;;;1.98;;
21615;SDS011;10970;48.714;9.584;2023-04-03T06:14:09;2.50;;;2.20;;
21615;SDS011;10970;48.714;9.584;2023-04-03T06:16:35;3.50;;;2.60;;
21615;SDS011;10970;48.714;9.584;2023-04-03T06:19:00;2.47;;;2.10;;
21615;SDS011;10970;48.714;9.584;2023-04-03T06:21:27;3.40;;;2.33;;
21615;SDS011;10970;48.714;9.584;2023-04-03T06:23:52;1.50;;;1.40;;
21615;SDS011;10970;48.714;9.584;2023-04-03T06:26:18;2.47;;;2.27;;
21615;SDS011;10970;48.714;9.584;2023-04-03T06:28:44;4.93;;;2.53;;
21615;SDS011;10970;48.714;9.584;2023-04-03T06:31:09;4.10;;;2.53;;
21615;SDS011;10970;48.714;9.584;2023-04-03T06:33:35;3.10;;;2.50;;
21615;SDS011;10970;48.714;9.584;2023-04-03T06:36:03;3.07;;;2.40;;
21615;SDS011;10970;48.714;9.584;2023-04-03T06:38:30;3.80;;;2.80;;
21615;SDS011;10970;48.714;9.584;2023-04-03T06:40:56;2.22;;;2.13;;
21615;SDS011;10970;48.714;9.584;2023-04-03T06:43:22;3.60;;;3.30;;
21615;SDS011;10970;48.714;9.584;2023-04-03T06:45:47;3.00;;;2.70;;
21615;SDS011;10970;48.714;9.584;2023-04-03T06:48:13;2.53;;;2.33;;
21615;SDS011;10970;48.714;9.584;2023-04-03T06:50:39;2.60;;;2.40;;
21615;SDS011;10970;48.714;9.584;2023-04-03T06:53:05;3.20;;;2.90;;
21615;SDS011;10970;48.714;9.584;2023-04-03T06:55:32;3.00;;;2.60;;
21615;SDS011;10970;48.714;9.584;2023-04-03T06:57:57;3.35;;;3.03;;
21615;SDS011;10970;48.714;9.584;2023-04-03T07:00:23;4.37;;;2.80;;
21615;SDS011;10970;48.714;9.584;2023-04-03T07:02:49;2.63;;;2.53;;
21615;SDS011;10970;48.714;9.584;2023-04-03T07:05:16;2.42;;;2.20;;
21615;SDS011;10970;48.714;9.584;2023-04-03T07:07:42;3.40;;;3.10;;
21615;SDS011;10970;48.714;9.584;2023-04-03T07:10:08;2.47;;;2.28;;
21615;SDS011;10970;48.714;9.584;2023-04-03T07:12:35;2.28;;;2.17;;
21615;SDS011;10970;48.714;9.584;2023-04-03T07:15:01;2.70;;;2.40;;
21615;SDS011;10970;48.714;9.584;2023-04-03T07:17:27;2.80;;;2.60;;
21615;SDS011;10970;48.714;9.584;2023-04-03T07:19:53;3.13;;;2.83;;
21615;SDS011;10970;48.714;9.584;2023-04-03T07:22:19;4.50;;;2.50;;
21615;SDS011;10970;48.714;9.584;2023-04-03T07:24:45;3.10;;;2.60;;
21615;SDS011;10970;48.714;9.584;2023-04-03T07:27:11;2.70;;;2.50;;
21615;SDS011;10970;48.714;9.584;2023-04-03T07:29:37;2.65;;;2.45;;
21615;SDS011;10970;48.714;9.584;2023-04-03T07:32:04;3.05;;;2.50;;
21615;SDS011;10970;48.714;9.584;2023-04-03T07:34:30;5.93;;;2.83;;
21615;SDS011;10970;48.714;9.584;2023-04-03T07:36:57;3.20;;;2.90;;
21615;SDS011;10970;48.714;9.584;2023-04-03T07:39:23;2.22;;;2.03;;
21615;SDS011;10970;48.714;9.584;2023-04-03T07:41:50;3.17;;;2.67;;
21615;SDS011;10970;48.714;9.584;2023-04-03T07:44:16;2.50;;;2.40;;
21615;SDS011;10970;48.714;9.584;2023-04-03T07:46:42;3.75;;;3.00;;
21615;SDS011;10970;48.714;9.584;2023-04-03T07:49:08;3.10;;;2.70;;
21615;SDS011;10970;48.714;9.584;2023-04-03T07:51:34;2.70;;;2.50;;
21615;SDS011;10970;48.714;9.584;2023-04-03T07:54:00;2.85;;;2.58;;
21615;SDS011;10970;48.714;9.584;2023-04-03T07:56:26;3.30;;;3.03;;
21615;SDS011;10970;48.714;9.584;2023-04-03T07:58:52;2.08;;;1.85;;
21615;SDS011;10970;48.714;9.584;2023-04-03T08:01:18;2.80;;;2.60;;
21615;SDS011;10970;48.714;9.584;2023-04-03T08:03:44;3.47;;;2.30;;
21615;SDS011;10970;48.714;9.584;2023-04-03T08:06:10;2.60;;;2.40;;
21615;SDS011;10970;48.714;9.584;2023-04-03T08:08:35;3.10;;;2.90;;
21615;SDS011;10970;48.714;9.584;2023-04-03T08:11:01;3.10;;;2.50;;
21615;SDS011;10970;48.714;9.584;2023-04-03T08:13:30;3.08;;;2.58;;
21615;SDS011;10970;48.714;9.584;2023-04-03T08:15:56;5.17;;;2.73;;
21615;SDS011;10970;48.714;9.584;2023-04-03T08:18:22;3.20;;;2.63;;
21615;SDS011;10970;48.714;9.584;2023-04-03T08:20:49;3.20;;;2.90;;
21615;SDS011;10970;48.714;9.584;2023-04-03T08:23:16;2.47;;;2.28;;
21615;SDS011;10970;48.714;9.584;2023-04-03T08:25:42;2.42;;;2.25;;
21615;SDS011;10970;48.714;9.584;2023-04-03T08:28:09;3.72;;;2.97;;
21615;SDS011;10970;48.714;9.584;2023-04-03T08:30:38;4.32;;;2.83;;
21615;SDS011;10970;48.714;9.584;2023-04-03T08:33:04;2.80;;;2.67;;
21615;SDS011;10970;48.714;9.584;2023-04-03T08:35:31;2.33;;;2.22;;
21615;SDS011;10970;48.714;9.584;2023-04-03T08:37:56;4.30;;;2.93;;
21615;SDS011;10970;48.714;9.584;2023-04-03T08:40:22;2.80;;;2.43;;
21615;SDS011;10970;48.714;9.584;2023-04-03T08:45:43;3.28;;;2.60;;
21615;SDS011;10970;48.714;9.584;2023-04-03T08:50:53;2.67;;;2.47;;
21615;SDS011;10970;48.714;9.584;2023-04-03T08:53:25;3.42;;;2.63;;
21615;SDS011;10970;48.714;9.584;2023-04-03T08:55:53;5.50;;;3.08;;
21615;SDS011;10970;48.714;9.584;2023-04-03T09:00:51;3.65;;;2.30;;
21615;SDS011;10970;48.714;9.584;2023-04-03T09:03:23;3.47;;;3.17;;
21615;SDS011;10970;48.714;9.584;2023-04-03T09:11:21;3.23;;;2.93;;
21615;SDS011;10970;48.714;9.584;2023-04-03T09:22:26;2.72;;;2.40;;
21615;SDS011;10970;48.714;9.584;2023-04-03T09:25:05;2.67;;;2.47;;
21615;SDS011;10970;48.714;9.584;2023-04-03T09:27:43;3.15;;;2.47;;
21615;SDS011;10970;48.714;9.584;2023-04-03T09:30:17;2.53;;;2.00;;
21615;SDS011;10970;48.714;9.584;2023-04-03T09:32:48;2.50;;;2.30;;
21615;SDS011;10970;48.714;9.584;2023-04-03T09:37:53;2.50;;;2.30;;
21615;SDS011;10970;48.714;9.584;2023-04-03T09:43:19;5.80;;;2.97;;
21615;SDS011;10970;48.714;9.584;2023-04-03T09:45:45;2.05;;;1.88;;
21615;SDS011;10970;48.714;9.584;2023-04-03T09:51:00;2.07;;;1.80;;
21615;SDS011;10970;48.714;9.584;2023-04-03T09:56:02;2.72;;;1.60;;
21615;SDS011;10970;48.714;9.584;2023-04-03T09:58:50;2.30;;;1.90;;
21615;SDS011;10970;48.714;9.584;2023-04-03T10:06:39;2.10;;;1.92;;
21615;SDS011;10970;48.714;9.584;2023-04-03T10:09:31;6.18;;;2.10;;
21615;SDS011;10970;48.714;9.584;2023-04-03T10:14:24;2.40;;;2.20;;
21615;SDS011;10970;48.714;9.584;2023-04-03T10:16:53;2.60;;;2.40;;
21615;SDS011;10970;48.714;9.584;2023-04-03T10:28:01;1.83;;;1.73;;
21615;SDS011;10970;48.714;9.584;2023-04-03T10:33:12;1.98;;;1.80;;
21615;SDS011;10970;48.714;9.584;2023-04-03T10:35:59;2.00;;;1.77;;
21615;SDS011;10970;48.714;9.584;2023-04-03T10:41:21;2.03;;;1.53;;
21615;SDS011;10970;48.714;9.584;2023-04-03T10:46:23;2.15;;;1.77;;
21615;SDS011;10970;48.714;9.584;2023-04-03T10:49:22;2.60;;;1.60;;
21615;SDS011;10970;48.714;9.584;2023-04-03T10:54:46;13.00;;;2.97;;
21615;SDS011;10970;48.714;9.584;2023-04-03T10:57:13;2.13;;;1.60;;
21615;SDS011;10970;48.714;9.584;2023-04-03T10:59:43;7.90;;;2.43;;
21615;SDS011;10970;48.714;9.584;2023-04-03T11:02:23;3.63;;;1.50;;
21615;SDS011;10970;48.714;9.584;2023-04-03T11:04:54;1.65;;;1.55;;
21615;SDS011;10970;48.714;9.584;2023-04-03T11:07:26;2.67;;;1.98;;
21615;SDS011;10970;48.714;9.584;2023-04-03T11:10:02;2.17;;;2.08;;
21615;SDS011;10970;48.714;9.584;2023-04-03T11:12:44;3.75;;;2.42;;
21615;SDS011;10970;48.714;9.584;2023-04-03T11:15:17;2.45;;;1.92;;
21615;SDS011;10970;48.714;9.584;2023-04-03T11:17:51;2.35;;;2.15;;
21615;SDS011;10970;48.714;9.584;2023-04-03T11:20:34;2.35;;;1.60;;
21615;SDS011;10970;48.714;9.584;2023-04-03T11:23:03;2.60;;;2.40;;
21615;SDS011;10970;48.714;9.584;2023-04-03T11:25:36;2.05;;;1.65;;
21615;SDS011;10970;48.714;9.584;2023-04-03T11:28:06;2.75;;;1.92;;
21615;SDS011;10970;48.714;9.584;2023-04-03T11:35:54;1.48;;;1.38;;
21615;SDS011;10970;48.714;9.584;2023-04-03T11:38:25;1.77;;;1.50;;
21615;SDS011;10970;48.714;9.584;2023-04-03T11:40:55;2.10;;;1.55;;
21615;SDS011;10970;48.714;9.584;2023-04-03T11:43:30;4.47;;;1.90;;
21615;SDS011;10970;48.714;9.584;2023-04-03T11:46:00;2.50;;;1.30;;
21615;SDS011;10970;48.714;9.584;2023-04-03T11:50:55;1.67;;;1.58;;
21615;SDS011;10970;48.714;9.584;2023-04-03T11:53:37;2.00;;;1.80;;
21615;SDS011;10970;48.714;9.584;2023-04-03T12:01:59;2.20;;;1.60;;
21615;SDS011;10970;48.714;9.584;2023-04-03T12:04:25;1.60;;;1.50;;
21615;SDS011;10970;48.714;9.584;2023-04-03T12:06:59;5.13;;;2.17;;
21615;SDS011;10970;48.714;9.584;2023-04-03T12:15:11;3.17;;;1.60;;
21615;SDS011;10970;48.714;9.584;2023-04-03T12:17:44;2.08;;;1.98;;
21615;SDS011;10970;48.714;9.584;2023-04-03T12:23:30;2.08;;;1.67;;
21615;SDS011;10970;48.714;9.584;2023-04-03T12:28:42;2.42;;;1.55;;
21615;SDS011;10970;48.714;9.584;2023-04-03T12:31:09;2.10;;;2.00;;
21615;SDS011;10970;48.714;9.584;2023-04-03T12:36:37;1.52;;;1.42;;
21615;SDS011;10970;48.714;9.584;2023-04-03T12:41:57;3.77;;;1.80;;
21615;SDS011;10970;48.714;9.584;2023-04-03T12:47:51;4.35;;;1.73;;
21615;SDS011;10970;48.714;9.584;2023-04-03T12:50:28;1.75;;;1.65;;
21615;SDS011;10970;48.714;9.584;2023-04-03T12:53:06;2.47;;;2.28;;
21615;SDS011;10970;48.714;9.584;2023-04-03T12:55:37;3.15;;;2.17;;
21615;SDS011;10970;48.714;9.584;2023-04-03T12:58:16;1.80;;;1.70;;
21615;SDS011;10970;48.714;9.584;2023-04-03T13:00:46;1.90;;;1.75;;
21615;SDS011;10970;48.714;9.584;2023-04-03T13:03:23;2.25;;;1.70;;
21615;SDS011;10970;48.714;9.584;2023-04-03T13:05:52;1.95;;;1.80;;
21615;SDS011;10970;48.714;9.584;2023-04-03T13:08:19;3.22;;;1.75;;
21615;SDS011;10970;48.714;9.584;2023-04-03T13:11:07;2.30;;;2.20;;
21615;SDS011;10970;48.714;9.584;2023-04-03T13:13:35;2.90;;;2.22;;
21615;SDS011;10970;48.714;9.584;2023-04-03T13:16:07;2.63;;;2.03;;
21615;SDS011;10970;48.714;9.584;2023-04-03T13:18:35;2.38;;;1.77;;
21615;SDS011;10970;48.714;9.584;2023-04-03T13:21:06;3.63;;;2.63;;
21615;SDS011;10970;48.714;9.584;2023-04-03T13:23:43;1.83;;;1.70;;
21615;SDS011;10970;48.714;9.584;2023-04-03T13:26:11;1.20;;;1.10;;
21615;SDS011;10970;48.714;9.584;2023-04-03T13:28:41;2.13;;;1.75;;
21615;SDS011;10970;48.714;9.584;2023-04-03T13:33:39;2.15;;;2.05;;
21615;SDS011;10970;48.714;9.584;2023-04-03T13:36:37;1.67;;;1.40;;
21615;SDS011;10970;48.714;9.584;2023-04-03T13:41:41;2.45;;;1.73;;
21615;SDS011;10970;48.714;9.584;2023-04-03T13:46:47;1.77;;;1.67;;
21615;SDS011;10970;48.714;9.584;2023-04-03T13:54:51;4.07;;;2.53;;
21615;SDS011;10970;48.714;9.584;2023-04-03T13:57:19;2.15;;;1.95;;
21615;SDS011;10970;48.714;9.584;2023-04-03T13:59:45;4.20;;;2.47;;
21615;SDS011;10970;48.714;9.584;2023-04-03T14:02:18;1.70;;;1.50;;
21615;SDS011;10970;48.714;9.584;2023-04-03T14:04:56;1.70;;;1.60;;
21615;SDS011;10970;48.714;9.584;2023-04-03T14:07:25;1.88;;;1.73;;
21615;SDS011;10970;48.714;9.584;2023-04-03T14:09:51;2.42;;;2.22;;
21615;SDS011;10970;48.714;9.584;2023-04-03T14:12:25;2.10;;;1.88;;
21615;SDS011;10970;48.714;9.584;2023-04-03T14:14:51;4.15;;;2.00;;
21615;SDS011;10970;48.714;9.584;2023-04-03T14:17:19;1.85;;;1.75;;
21615;SDS011;10970;48.714;9.584;2023-04-03T14:19:46;2.38;;;1.98;;
21615;SDS011;10970;48.714;9.584;2023-04-03T14:22:21;2.03;;;1.83;;
21615;SDS011;10970;48.714;9.584;2023-04-03T14:24:48;2.65;;;1.85;;
21615;SDS011;10970;48.714;9.584;2023-04-03T14:27:18;1.90;;;1.80;;
21615;SDS011;10970;48.714;9.584;2023-04-03T14:29:50;3.05;;;1.95;;
21615;SDS011;10970;48.714;9.584;2023-04-03T14:32:17;2.75;;;2.53;;
21615;SDS011;10970;48.714;9.584;2023-04-03T14:34:49;2.42;;;2.00;;
21615;SDS011;10970;48.714;9.584;2023-04-03T14:37:17;7.60;;;2.10;;
21615;SDS011;10970;48.714;9.584;2023-04-03T14:39:48;2.20;;;2.00;;
21615;SDS011;10970;48.714;9.584;2023-04-03T14:42:16;2.15;;;1.95;;
21615;SDS011;10970;48.714;9.584;2023-04-03T14:44:48;1.67;;;1.58;;
21615;SDS011;10970;48.714;9.584;2023-04-03T14:47:16;2.25;;;2.08;;
21615;SDS011;10970;48.714;9.584;2023-04-03T14:49:44;1.60;;;1.50;;
21615;SDS011;10970;48.714;9.584;2023-04-03T14:52:16;3.77;;;1.77;;
21615;SDS011;10970;48.714;9.584;2023-04-03T14:54:48;2.20;;;2.00;;
21615;SDS011;10970;48.714;9.584;2023-04-03T14:57:15;2.35;;;2.15;;
21615;SDS011;10970;48.714;9.584;2023-04-03T14:59:41;2.70;;;1.88;;
21615;SDS011;10970;48.714;9.584;2023-04-03T15:02:32;4.07;;;2.05;;
21615;SDS011;10970;48.714;9.584;2023-04-03T15:04:58;2.03;;;1.92;;
21615;SDS011;10970;48.714;9.584;2023-04-03T15:07:26;1.80;;;1.70;;
21615;SDS011;10970;48.714;9.584;2023-04-03T15:09:53;2.25;;;1.83;;
21615;SDS011;10970;48.714;9.584;2023-04-03T15:12:21;2.45;;;2.08;;
21615;SDS011;10970;48.714;9.584;2023-04-03T15:14:48;4.07;;;2.30;;
21615;SDS011;10970;48.714;9.584;2023-04-03T15:17:14;2.20;;;2.00;;
21615;SDS011;10970;48.714;9.584;2023-04-03T15:19:43;2.42;;;2.22;;
21615;SDS011;10970;48.714;9.584;2023-04-03T15:22:16;1.92;;;1.80;;
21615;SDS011;10970;48.714;9.584;2023-04-03T15:24:44;4.65;;;2.00;;
21615;SDS011;10970;48.714;9.584;2023-04-03T15:27:10;3.70;;;1.92;;
21615;SDS011;10970;48.714;9.584;2023-04-03T15:29:38;3.67;;;1.70;;
21615;SDS011;10970;48.714;9.584;2023-04-03T15:32:04;1.67;;;1.58;;
21615;SDS011;10970;48.714;9.584;2023-04-03T15:34:30;1.63;;;1.48;;
21615;SDS011;10970;48.714;9.584;2023-04-03T15:36:56;2.53;;;1.85;;
21615;SDS011;10970;48.714;9.584;2023-04-03T15:39:22;1.93;;;1.70;;
21615;SDS011;10970;48.714;9.584;2023-04-03T15:41:50;3.00;;;1.55;;
21615;SDS011;10970;48.714;9.584;2023-04-03T15:44:17;2.13;;;1.90;;
21615;SDS011;10970;48.714;9.584;2023-04-03T15:46:44;2.33;;;2.10;;
21615;SDS011;10970;48.714;9.584;2023-04-03T15:49:11;1.98;;;1.88;;
21615;SDS011;10970;48.714;9.584;2023-04-03T15:51:37;2.15;;;2.05;;
21615;SDS011;10970;48.714;9.584;2023-04-03T15:54:03;4.10;;;2.07;;
21615;SDS011;10970;48.714;9.584;2023-04-03T15:56:29;1.77;;;1.67;;
21615;SDS011;10970;48.714;9.584;2023-04-03T15:58:55;3.43;;;1.73;;
21615;SDS011;10970;48.714;9.584;2023-04-03T16:01:20;2.27;;;2.07;;
21615;SDS011;10970;48.714;9.584;2023-04-03T16:03:46;3.43;;;2.03;;
21615;SDS011;10970;48.714;9.584;2023-04-03T16:06:15;4.70;;;2.10;;
21615;SDS011;10970;48.714;9.584;2023-04-03T16:08:43;4.60;;;2.25;;
21615;SDS011;10970;48.714;9.584;2023-04-03T16:11:09;1.95;;;1.85;;
21615;SDS011;10970;48.714;9.584;2023-04-03T16:13:35;3.80;;;2.30;;
21615;SDS011;10970;48.714;9.584;2023-04-03T16:16:01;2.73;;;1.73;;
21615;SDS011;10970;48.714;9.584;2023-04-03T16:18:27;1.70;;;1.60;;
21615;SDS011;10970;48.714;9.584;2023-04-03T16:20:53;2.85;;;1.90;;
21615;SDS011;10970;48.714;9.584;2023-04-03T16:23:19;1.90;;;1.80;;
21615;SDS011;10970;48.714;9.584;2023-04-03T16:25:46;2.67;;;1.77;;
21615;SDS011;10970;48.714;9.584;2023-04-03T16:28:14;2.65;;;1.85;;
21615;SDS011;10970;48.714;9.584;2023-04-03T16:30:41;2.10;;;1.80;;
21615;SDS011;10970;48.714;9.584;2023-04-03T16:33:08;2.05;;;1.95;;
21615;SDS011;10970;48.714;9.584;2023-04-03T16:35:34;2.08;;;1.83;;
21615;SDS011;10970;48.714;9.584;2023-04-03T16:38:00;3.03;;;2.00;;
21615;SDS011;10970;48.714;9.584;2023-04-03T16:40:26;2.97;;;1.67;;
21615;SDS011;10970;48.714;9.584;2023-04-03T16:42:52;3.70;;;2.03;;
21615;SDS011;10970;48.714;9.584;2023-04-03T16:45:18;2.37;;;2.17;;
21615;SDS011;10970;48.714;9.584;2023-04-03T16:47:43;3.70;;;2.20;;
21615;SDS011;10970;48.714;9.584;2023-04-03T16:50:09;6.50;;;2.10;;